AR855 VNLK-VNLK
Flight info
| Callsign | AR855 |
|---|---|
| Flight time | N/A |
| Altitude | 2000 |
| Route | VFR |
| Aircraft | BE58/L-SDGY/S |
Departure
| Time | 2025-05-17 12:46 |
|---|---|
| Airport | Tenzing-Hillary Airport (VNLK) |
Arrival
| Time | N/A |
|---|---|
| Airport | Tenzing-Hillary Airport (VNLK) |
| Time | Latitude | Longitude | Altitude | Speed | Heading |
|---|---|---|---|---|---|
| 2025-05-17 12:26 | 27.68754 | 86.73158 | 9340 ft | 0 kts | 60° |
| 2025-05-17 12:30 | 27.68765 | 86.73166 | 9340 ft | 0 kts | 345° |
| 2025-05-17 12:31 | 27.68795 | 86.73161 | 9340 ft | 0 kts | 239° |
| 2025-05-17 12:32 | 27.68704 | 86.72988 | 9340 ft | 57 kts | 240° |
| 2025-05-17 12:32 | 27.68148 | 86.71489 | 8381 ft | 174 kts | 295° |
| 2025-05-17 12:33 | 27.68386 | 86.71626 | 8813 ft | 131 kts | 137° |
| 2025-05-17 12:33 | 27.68500 | 86.72509 | 9340 ft | 41 kts | 14° |
| 2025-05-17 12:33 | 27.68889 | 86.72630 | 9341 ft | 72 kts | 5° |
| 2025-05-17 12:34 | 27.68965 | 86.73180 | 9340 ft | 14 kts | 171° |
| 2025-05-17 12:34 | 27.68754 | 86.73158 | 9340 ft | 0 kts | 60° |
| 2025-05-17 12:35 | 27.68776 | 86.73169 | 9340 ft | 5 kts | 34° |
| 2025-05-17 12:36 | 27.68753 | 86.73089 | 9340 ft | 42 kts | 240° |
| 2025-05-17 12:36 | 27.68506 | 86.72613 | 9344 ft | 91 kts | 238° |
| 2025-05-17 12:36 | 27.67996 | 86.70928 | 9341 ft | 116 kts | 286° |
| 2025-05-17 12:37 | 27.67749 | 86.71540 | 8866 ft | 142 kts | 45° |
| 2025-05-17 12:37 | 27.68712 | 86.72665 | 9342 ft | 55 kts | 330° |
| 2025-05-17 12:38 | 27.68819 | 86.72726 | 9340 ft | 4 kts | 347° |
| 2025-05-17 12:38 | 27.68754 | 86.73158 | 9340 ft | 0 kts | 60° |
| 2025-05-17 12:43 | 27.68790 | 86.73171 | 9340 ft | 2 kts | 274° |
| 2025-05-17 12:44 | 27.68515 | 86.72634 | 9356 ft | 86 kts | 237° |
| 2025-05-17 12:44 | 27.68087 | 86.71924 | 8722 ft | 166 kts | 231° |
| 2025-05-17 12:45 | 27.66605 | 86.69356 | 9724 ft | 103 kts | 305° |
| 2025-05-17 12:45 | 27.67076 | 86.68939 | 10079 ft | 83 kts | 340° |
| 2025-05-17 12:45 | 27.68208 | 86.68076 | 10181 ft | 110 kts | 315° |
| 2025-05-17 12:46 | 27.69159 | 86.67545 | 10714 ft | 0 kts | 283° |
| 2025-05-17 12:47 | 27.68638 | 86.72830 | 9341 ft | 71 kts | 244° |
| 2025-05-17 12:47 | 27.68277 | 86.72369 | 9246 ft | 98 kts | 220° |
| 2025-05-17 12:48 | 27.67726 | 86.71730 | 7720 ft | 203 kts | 231° |
| 2025-05-17 12:49 | 32.69208 | -16.77779 | 147 ft | 0 kts | 338° |
| 2025-05-17 12:49 | 32.69271 | -16.77939 | 168 ft | 10 kts | 279° |
| 2025-05-17 12:50 | 32.69981 | -16.77181 | 300 ft | 114 kts | 48° |
| 2025-05-17 12:50 | 32.70359 | -16.76288 | 515 ft | 133 kts | 56° |
| 2025-05-17 12:50 | 32.69782 | -16.76312 | 478 ft | 173 kts | 195° |
| 2025-05-17 12:51 | 32.68729 | -16.78871 | 291 ft | 110 kts | 249° |
| 2025-05-17 12:52 | 32.69134 | -16.78186 | 150 ft | 82 kts | 45° |
| 2025-05-17 12:52 | 32.69653 | -16.76322 | 32 ft | 161 kts | 70° |
| 2025-05-17 12:53 | 32.69901 | -16.77271 | 191 ft | 76 kts | 220° |
| 2025-05-17 12:53 | 32.69814 | -16.77566 | 228 ft | 16 kts | 15° |
| 2025-05-17 12:53 | 32.69696 | -16.77526 | 365 ft | 79 kts | 1° |
| 2025-05-17 12:54 | 32.69361 | -16.77201 | 534 ft | 119 kts | 345° |
| 2025-05-17 12:54 | 32.69743 | -16.78098 | 754 ft | 147 kts | 120° |
| 2025-05-17 12:55 | 32.70977 | -16.76442 | 726 ft | 160 kts | 211° |
| 2025-05-17 12:56 | 32.69546 | -16.77558 | 412 ft | 112 kts | 212° |
| 2025-05-17 12:56 | 32.69017 | -16.78215 | 463 ft | 127 kts | 244° |
| 2025-05-17 12:56 | 32.68417 | -16.78463 | 413 ft | 147 kts | 27° |
| 2025-05-17 12:57 | 32.69451 | -16.77549 | 161 ft | 49 kts | 40° |